Check out our new BloomSky Weather System.

Active alerts


No alerts


Thunder radar  blitzortung!


Rain radar more information rain snow radar


Visit our other weather sites:

Template documentation
and downloads

And another site



Weather Underground History page Text

Daily Summary for August 26, 2017 Units:  English    Metric   Both
« Previous Day
Next Day »
Daily Weekly Monthly Yearly Custom
  High: Low: Average:
Temperature: 78.1 °F 73.8 °F 76.2 °F
Dew Point: 77.0 °F 73.4 °F 75.7 °F
Humidity: 100 % 95 % 98 %
Wind Speed: 19.0 mph 0.0 mph 4.5 mph
Wind Gust: 33.0 mph - -
Wind:- - ESE
Pressure: 29.85 in 29.75 in -
Precipitation: 6.69 in    
Historical Graphs
 
 
Tabular Data for August 26, 2017
Time Temperature Dew Point Pressure Wind Wind Speed Wind Gust Humidity Rainfall Rate (Hourly)
00:02 76.8 °F 75.6 °F 29.83 in SSE 7.0 mph 13.0 mph 96 % 0.02 in
00:07 76.8 °F 75.6 °F 29.83 in Calm   17.0 mph 96 % 0.02 in
00:12 76.8 °F 75.2 °F 29.83 in ENE 6.0 mph 17.0 mph 95 % 0.01 in
00:17 76.8 °F 75.2 °F 29.83 in ENE 3.0 mph 17.0 mph 95 % 0.01 in
00:22 76.8 °F 75.2 °F 29.82 in NE 2.0 mph 14.0 mph 95 % 0.02 in
00:27 76.8 °F 75.2 °F 29.82 in ESE 4.0 mph 14.0 mph 95 % 0.03 in
00:32 76.6 °F 75.0 °F 29.82 in East 10.0 mph 14.0 mph 95 % 0.04 in
00:37 76.6 °F 75.0 °F 29.82 in East 2.0 mph 18.0 mph 95 % 0.04 in
00:42 76.5 °F 74.8 °F 29.81 in North 1.0 mph 18.0 mph 95 % 0.05 in
00:47 76.5 °F 75.2 °F 29.82 in East 9.0 mph 18.0 mph 96 % 0.05 in
00:52 76.5 °F 75.2 °F 29.82 in ENE 6.0 mph 15.0 mph 96 % 0.05 in
00:57 76.5 °F 75.2 °F 29.81 in NE 4.0 mph 15.0 mph 96 % 0.05 in
01:02 76.5 °F 75.2 °F 29.81 in ENE 3.0 mph 15.0 mph 96 % 0.05 in
01:07 76.5 °F 75.2 °F 29.82 in NNW 3.0 mph 11.0 mph 96 % 0.05 in
01:12 76.6 °F 75.4 °F 29.81 in NNW 6.0 mph 11.0 mph 96 % 0.06 in
01:17 76.6 °F 75.4 °F 29.81 in North 2.0 mph 11.0 mph 96 % 0.07 in
01:22 76.6 °F 75.7 °F 29.80 in NE 8.0 mph 11.0 mph 97 % 0.07 in
01:27 76.6 °F 75.7 °F 29.80 in NE 4.0 mph 11.0 mph 97 % 0.06 in
01:32 76.6 °F 75.7 °F 29.80 in East 5.0 mph 10.0 mph 97 % 0.06 in
01:37 76.6 °F 75.7 °F 29.80 in ENE 9.0 mph 16.0 mph 97 % 0.06 in
01:42 76.8 °F 75.9 °F 29.80 in ENE 4.0 mph 16.0 mph 97 % 0.05 in
01:44 76.8 °F 75.9 °F 29.80 in ESE 2.0 mph 16.0 mph 97 % 0.05 in
01:49 76.8 °F 75.9 °F 29.80 in NNW 1.0 mph 16.0 mph 97 % 0.05 in
01:54 77.0 °F 76.1 °F 29.80 in ESE 5.0 mph 15.0 mph 97 % 0.05 in
01:59 77.0 °F 76.1 °F 29.80 in NNW 4.0 mph 15.0 mph 97 % 0.05 in
02:04 77.0 °F 76.1 °F 29.80 in North 6.0 mph 15.0 mph 97 % 0.06 in
02:09 77.0 °F 76.1 °F 29.80 in East 4.0 mph 15.0 mph 97 % 0.06 in
02:14 77.0 °F 76.1 °F 29.79 in NNE 3.0 mph 15.0 mph 97 % 0.05 in
02:19 77.0 °F 75.7 °F 29.79 in ENE 5.0 mph 18.0 mph 96 % 0.04 in
02:24 77.0 °F 75.7 °F 29.79 in East 6.0 mph 18.0 mph 96 % 0.03 in
02:29 77.0 °F 75.7 °F 29.79 in ENE 5.0 mph 18.0 mph 96 % 0.01 in
02:35 77.0 °F 75.7 °F 29.78 in NNW 4.0 mph 13.0 mph 96 % 0.01 in
02:40 77.2 °F 75.9 °F 29.78 in ESE 9.0 mph 15.0 mph 96 % 0.01 in
02:45 77.2 °F 75.9 °F 29.78 in ENE 4.0 mph 15.0 mph 96 % 0.01 in
02:50 77.2 °F 75.9 °F 29.78 in NE 4.0 mph 15.0 mph 96 % 0.01 in
02:55 77.4 °F 76.1 °F 29.78 in NE 9.0 mph 15.0 mph 96 % 0.01 in
03:00 77.4 °F 76.1 °F 29.77 in ESE 1.0 mph 15.0 mph 96 % 0.01 in
03:05 77.5 °F 76.3 °F 29.77 in NW 2.0 mph 15.0 mph 96 % 0.00 in
03:10 77.5 °F 76.3 °F 29.78 in NE 3.0 mph 16.0 mph 96 % 0.00 in
03:15 77.7 °F 76.5 °F 29.78 in ENE 6.0 mph 16.0 mph 96 % 0.00 in
03:20 77.9 °F 76.6 °F 29.77 in NE 6.0 mph 13.0 mph 96 % 0.00 in
03:25 78.1 °F 76.8 °F 29.77 in NW 1.0 mph 15.0 mph 96 % 0.00 in
03:30 78.1 °F 76.8 °F 29.77 in NNW 5.0 mph 15.0 mph 96 % 0.00 in
03:35 78.1 °F 76.8 °F 29.77 in SE 1.0 mph 15.0 mph 96 % 0.00 in
03:40 78.1 °F 76.8 °F 29.77 in ENE 7.0 mph 13.0 mph 96 % 0.00 in
03:45 78.1 °F 76.8 °F 29.77 in ENE 5.0 mph 13.0 mph 96 % 0.03 in
03:50 78.1 °F 76.8 °F 29.77 in East 5.0 mph 13.0 mph 96 % 0.03 in
03:55 77.9 °F 76.6 °F 29.77 in North 3.0 mph 13.0 mph 96 % 0.04 in
04:00 77.7 °F 76.5 °F 29.76 in ENE 1.0 mph 13.0 mph 96 % 0.10 in
04:05 77.5 °F 76.3 °F 29.76 in East 2.0 mph 14.0 mph 96 % 0.12 in
04:10 77.5 °F 76.3 °F 29.77 in NNW 2.0 mph 14.0 mph 96 % 0.12 in
04:15 77.5 °F 76.6 °F 29.78 in ENE 19.0 mph 19.0 mph 97 % 0.12 in
04:20 77.5 °F 76.6 °F 29.77 in North 6.0 mph 19.0 mph 97 % 0.14 in
04:25 77.4 °F 76.5 °F 29.77 in ENE 2.0 mph 19.0 mph 97 % 0.16 in
04:30 77.4 °F 76.5 °F 29.77 in ENE 6.0 mph 19.0 mph 97 % 0.18 in
04:35 77.0 °F 76.1 °F 29.75 in NNE 4.0 mph 15.0 mph 97 % 0.23 in
04:40 76.8 °F 75.9 °F 29.75 in North 3.0 mph 15.0 mph 97 % 0.29 in
04:45 77.2 °F 76.6 °F 29.75 in SSE 6.0 mph 20.0 mph 98 % 0.27 in
04:50 77.4 °F 76.5 °F 29.75 in East 3.0 mph 20.0 mph 97 % 0.27 in
04:55 77.5 °F 76.6 °F 29.76 in North 4.0 mph 20.0 mph 97 % 0.26 in
05:00 77.5 °F 76.6 °F 29.75 in NE 2.0 mph 16.0 mph 97 % 0.25 in
05:05 77.5 °F 76.6 °F 29.76 in North 2.0 mph 16.0 mph 97 % 0.23 in
05:10 77.5 °F 76.6 °F 29.76 in ENE 5.0 mph 16.0 mph 97 % 0.25 in
05:15 77.7 °F 76.8 °F 29.75 in South 3.0 mph 16.0 mph 97 % 0.24 in
05:20 77.7 °F 76.8 °F 29.77 in SE 3.0 mph 16.0 mph 97 % 0.23 in
05:25 77.9 °F 77.0 °F 29.77 in NW 2.0 mph 17.0 mph 97 % 0.28 in
05:30 77.9 °F 77.0 °F 29.76 in East 9.0 mph 17.0 mph 97 % 0.27 in
05:35 77.7 °F 76.8 °F 29.76 in NNE 4.0 mph 17.0 mph 97 % 0.23 in
05:40 77.7 °F 76.8 °F 29.76 in ENE 9.0 mph 16.0 mph 97 % 0.17 in
05:45 77.7 °F 76.8 °F 29.75 in ENE 4.0 mph 16.0 mph 97 % 0.16 in
05:50 77.5 °F 76.6 °F 29.75 in East 15.0 mph 16.0 mph 97 % 0.17 in
05:55 77.4 °F 76.5 °F 29.75 in ENE 7.0 mph 16.0 mph 97 % 0.18 in
06:00 77.4 °F 76.5 °F 29.76 in NE 2.0 mph 16.0 mph 97 % 0.13 in
06:05 77.2 °F 76.3 °F 29.76 in WNW 5.0 mph 15.0 mph 97 % 0.16 in
06:10 77.2 °F 76.3 °F 29.76 in NNW 3.0 mph 15.0 mph 97 % 0.14 in
06:15 77.2 °F 76.3 °F 29.76 in East 4.0 mph 15.0 mph 97 % 0.17 in
06:21 77.2 °F 76.3 °F 29.77 in NW 1.0 mph 18.0 mph 97 % 0.18 in
06:26 77.2 °F 76.6 °F 29.76 in NNE 7.0 mph 18.0 mph 98 % 0.17 in
06:31 77.0 °F 76.1 °F 29.76 in East 4.0 mph 18.0 mph 97 % 0.18 in
06:36 77.0 °F 76.1 °F 29.77 in ENE 4.0 mph 16.0 mph 97 % 0.19 in
06:41 76.8 °F 75.9 °F 29.76 in NE 5.0 mph 16.0 mph 97 % 0.21 in
06:46 76.8 °F 76.3 °F 29.76 in SE 2.0 mph 16.0 mph 98 % 0.23 in
06:51 76.8 °F 76.3 °F 29.77 in NW 4.0 mph 16.0 mph 98 % 0.23 in
06:52 76.8 °F 76.3 °F 29.77 in NNW 3.0 mph 16.0 mph 98 % 0.23 in
06:57 76.8 °F 76.3 °F 29.78 in NNE 4.0 mph 13.0 mph 98 % 0.26 in
07:02 76.8 °F 76.3 °F 29.78 in NW 1.0 mph 16.0 mph 98 % 0.39 in
07:07 76.8 °F 76.3 °F 29.79 in SSE 2.0 mph 16.0 mph 98 % 0.42 in
07:12 76.8 °F 76.3 °F 29.81 in South 4.0 mph 19.0 mph 98 % 0.49 in
07:17 76.8 °F 76.3 °F 29.79 in South 7.0 mph 19.0 mph 98 % 0.62 in
07:22 76.8 °F 76.3 °F 29.81 in SE 9.0 mph 19.0 mph 98 % 0.72 in
07:27 76.5 °F 75.9 °F 29.80 in SSE 3.0 mph 16.0 mph 98 % 1.04 in
07:33 76.1 °F 75.6 °F 29.78 in NW 3.0 mph 16.0 mph 98 % 1.35 in
07:37 75.9 °F 75.4 °F 29.79 in ESE 1.0 mph 16.0 mph 98 % 1.38 in
07:42 75.7 °F 75.4 °F 29.79 in SSE 2.0 mph 12.0 mph 99 % 1.56 in
07:48 75.7 °F 75.4 °F 29.80 in SE 4.0 mph 8.0 mph 99 % 1.68 in
07:53 75.7 °F 75.4 °F 29.80 in SE 5.0 mph 10.0 mph 99 % 1.90 in
07:57 76.1 °F 75.7 °F 29.79 in SE 4.0 mph 10.0 mph 99 % 1.91 in
07:58 76.1 °F 75.7 °F 29.79 in ENE 3.0 mph 10.0 mph 99 % 1.91 in
08:03 76.1 °F 75.7 °F 29.80 in ESE 7.0 mph 11.0 mph 99 % 1.83 in
08:08 76.3 °F 75.9 °F 29.81 in ESE 8.0 mph 21.0 mph 99 % 1.86 in
08:13 76.1 °F 75.7 °F 29.81 in North 6.0 mph 21.0 mph 99 % 1.81 in
08:18 75.4 °F 74.8 °F 29.81 in East 18.0 mph 21.0 mph 98 % 1.69 in
08:23 74.8 °F 74.3 °F 29.81 in SE 11.0 mph 33.0 mph 98 % 1.59 in
08:28 74.7 °F 74.3 °F 29.81 in ESE 6.0 mph 33.0 mph 99 % 1.23 in
08:33 74.8 °F 74.5 °F 29.80 in ENE 5.0 mph 33.0 mph 99 % 0.97 in
08:38 75.0 °F 74.7 °F 29.81 in SSE 4.0 mph 26.0 mph 99 % 0.94 in
08:43 75.0 °F 74.7 °F 29.81 in SE 4.0 mph 14.0 mph 99 % 0.75 in
08:48 75.0 °F 74.7 °F 29.82 in East 7.0 mph 14.0 mph 99 % 0.62 in
08:53 75.0 °F 74.7 °F 29.82 in ESE 10.0 mph 12.0 mph 99 % 0.39 in
09:03 74.7 °F 74.3 °F 29.81 in SE 4.0 mph 14.0 mph 99 % 0.31 in
09:08 74.7 °F 74.3 °F 29.81 in SE 6.0 mph 14.0 mph 99 % 0.22 in
09:13 74.7 °F 74.3 °F 29.82 in SE 8.0 mph 16.0 mph 99 % 0.19 in
09:18 74.7 °F 74.3 °F 29.82 in ESE 14.0 mph 16.0 mph 99 % 0.17 in
09:23 74.7 °F 74.3 °F 29.82 in East 4.0 mph 16.0 mph 99 % 0.15 in
09:28 74.7 °F 74.7 °F 29.82 in SE 2.0 mph 14.0 mph 100 % 0.12 in
09:33 74.7 °F 74.7 °F 29.81 in NE 3.0 mph 14.0 mph 100 % 0.09 in
09:38 74.8 °F 74.8 °F 29.82 in ENE 4.0 mph 14.0 mph 100 % 0.08 in
09:43 74.8 °F 74.8 °F 29.83 in SSE 3.0 mph 14.0 mph 100 % 0.08 in
09:48 74.8 °F 74.8 °F 29.83 in SE 3.0 mph 14.0 mph 100 % 0.07 in
09:53 74.8 °F 74.8 °F 29.83 in East 7.0 mph 11.0 mph 100 % 0.08 in
09:58 74.8 °F 74.8 °F 29.83 in SSE 4.0 mph 10.0 mph 100 % 0.08 in
10:03 74.8 °F 74.8 °F 29.83 in SE 5.0 mph 12.0 mph 100 % 0.08 in
10:08 75.0 °F 75.0 °F 29.83 in SE 5.0 mph 12.0 mph 100 % 0.09 in
10:13 75.0 °F 75.0 °F 29.83 in WSW 6.0 mph 12.0 mph 100 % 0.09 in
10:18 75.0 °F 75.0 °F 29.82 in SSE 4.0 mph 16.0 mph 100 % 0.09 in
10:24 75.0 °F 75.0 °F 29.82 in ENE 3.0 mph 16.0 mph 100 % 0.09 in
10:29 75.0 °F 75.0 °F 29.82 in East 3.0 mph 16.0 mph 100 % 0.09 in
10:34 75.0 °F 75.0 °F 29.83 in East 13.0 mph 13.0 mph 100 % 0.09 in
10:39 75.0 °F 75.0 °F 29.83 in ESE 3.0 mph 13.0 mph 100 % 0.08 in
10:44 75.2 °F 75.2 °F 29.83 in East 6.0 mph 13.0 mph 100 % 0.07 in
10:49 75.2 °F 75.2 °F 29.83 in East 3.0 mph 13.0 mph 100 % 0.08 in
10:54 75.4 °F 75.4 °F 29.83 in ESE 2.0 mph 11.0 mph 100 % 0.09 in
10:59 75.6 °F 75.6 °F 29.83 in ENE 8.0 mph 13.0 mph 100 % 0.14 in
11:04 75.6 °F 75.6 °F 29.83 in ENE 3.0 mph 13.0 mph 100 % 0.15 in
11:09 75.7 °F 75.7 °F 29.83 in Calm   13.0 mph 100 % 0.14 in
11:14 75.9 °F 75.9 °F 29.83 in ESE 13.0 mph 13.0 mph 100 % 0.14 in
11:19 76.1 °F 76.1 °F 29.84 in ESE 6.0 mph 15.0 mph 100 % 0.14 in
11:24 76.3 °F 76.3 °F 29.83 in SE 3.0 mph 15.0 mph 100 % 0.13 in
11:29 76.3 °F 76.3 °F 29.84 in ESE 3.0 mph 15.0 mph 100 % 0.13 in
11:34 76.1 °F 76.1 °F 29.84 in ENE 2.0 mph 13.0 mph 100 % 0.13 in
11:39 75.9 °F 75.9 °F 29.85 in East 7.0 mph 14.0 mph 100 % 0.18 in
11:44 75.9 °F 75.9 °F 29.84 in ENE 4.0 mph 14.0 mph 100 % 0.22 in
11:49 75.9 °F 75.9 °F 29.84 in SE 1.0 mph 14.0 mph 100 % 0.22 in
11:54 75.9 °F 75.9 °F 29.83 in SSE 4.0 mph 13.0 mph 100 % 0.21 in
11:59 75.9 °F 75.9 °F 29.84 in ESE 4.0 mph 12.0 mph 100 % 0.15 in
12:04 75.9 °F 75.9 °F 29.85 in SE 1.0 mph 10.0 mph 100 % 0.13 in
12:09 75.9 °F 75.9 °F 29.84 in ESE 1.0 mph 11.0 mph 100 % 0.15 in
12:14 75.9 °F 75.9 °F 29.85 in SE 5.0 mph 11.0 mph 100 % 0.19 in
12:19 75.9 °F 75.9 °F 29.85 in ENE 8.0 mph 12.0 mph 100 % 0.19 in
12:24 75.9 °F 75.9 °F 29.83 in East 10.0 mph 17.0 mph 100 % 0.35 in
12:29 75.9 °F 75.9 °F 29.83 in NE 3.0 mph 17.0 mph 100 % 0.46 in
12:34 75.9 °F 75.9 °F 29.83 in ESE 3.0 mph 17.0 mph 100 % 0.46 in
12:39 76.3 °F 76.3 °F 29.83 in WSW 2.0 mph 16.0 mph 100 % 0.41 in
12:44 76.5 °F 76.5 °F 29.83 in East 6.0 mph 13.0 mph 100 % 0.37 in
12:49 76.5 °F 76.5 °F 29.82 in East 6.0 mph 12.0 mph 100 % 0.36 in
12:54 76.5 °F 76.5 °F 29.82 in ENE 5.0 mph 12.0 mph 100 % 0.35 in
12:55 76.5 °F 76.5 °F 29.82 in NW 3.0 mph 12.0 mph 100 % 0.35 in
13:00 76.5 °F 76.5 °F 29.83 in ENE 7.0 mph 13.0 mph 100 % 0.35 in
13:05 76.3 °F 76.3 °F 29.83 in NW 2.0 mph 13.0 mph 100 % 0.34 in
13:10 76.3 °F 76.3 °F 29.82 in SE 4.0 mph 13.0 mph 100 % 0.32 in
13:13 76.3 °F 76.3 °F 29.82 in ENE 4.0 mph 11.0 mph 100 % 0.28 in
13:18 76.3 °F 76.3 °F 29.82 in ENE 2.0 mph 11.0 mph 100 % 0.28 in
13:23 76.1 °F 76.1 °F 29.82 in East 3.0 mph 11.0 mph 100 % 0.13 in
13:28 75.9 °F 75.9 °F 29.82 in ESE 5.0 mph 10.0 mph 100 % 0.02 in
13:33 75.9 °F 75.9 °F 29.82 in SE 2.0 mph 10.0 mph 100 % 0.02 in
13:38 75.7 °F 75.7 °F 29.82 in East 4.0 mph 10.0 mph 100 % 0.02 in
13:48 75.6 °F 75.6 °F 29.81 in ESE 1.0 mph 13.0 mph 100 % 0.02 in
13:53 75.7 °F 75.7 °F 29.81 in SE 3.0 mph 14.0 mph 100 % 0.02 in
13:58 75.9 °F 75.9 °F 29.81 in ESE 5.0 mph 14.0 mph 100 % 0.02 in
14:03 75.9 °F 75.9 °F 29.81 in SSE 1.0 mph 14.0 mph 100 % 0.02 in
14:08 76.1 °F 76.1 °F 29.81 in East 1.0 mph 15.0 mph 100 % 0.02 in
14:13 76.1 °F 76.1 °F 29.81 in SSE 2.0 mph 15.0 mph 100 % 0.01 in
14:18 76.3 °F 76.3 °F 29.80 in NE 7.0 mph 15.0 mph 100 % 0.01 in
14:23 76.5 °F 76.5 °F 29.80 in Calm   10.0 mph 100 % 0.00 in
14:28 76.5 °F 76.5 °F 29.80 in ENE 6.0 mph 9.0 mph 100 % 0.00 in
14:33 76.3 °F 76.3 °F 29.79 in East 3.0 mph 13.0 mph 100 % 0.00 in
14:38 76.3 °F 76.3 °F 29.80 in ESE 3.0 mph 13.0 mph 100 % 0.00 in
14:43 76.3 °F 76.3 °F 29.80 in WSW 2.0 mph 13.0 mph 100 % 0.00 in
14:48 76.3 °F 76.3 °F 29.79 in ESE 4.0 mph 11.0 mph 100 % 0.00 in
14:53 76.3 °F 76.3 °F 29.80 in SE 6.0 mph 11.0 mph 100 % 0.00 in
14:58 76.3 °F 76.3 °F 29.79 in NE 4.0 mph 9.0 mph 100 % 0.00 in
15:03 76.3 °F 76.3 °F 29.78 in ENE 5.0 mph 9.0 mph 100 % 0.01 in
15:08 76.3 °F 76.3 °F 29.79 in East 3.0 mph 11.0 mph 100 % 0.01 in
15:13 76.5 °F 76.5 °F 29.78 in NW 4.0 mph 13.0 mph 100 % 0.01 in
15:18 76.6 °F 76.6 °F 29.78 in NNW 3.0 mph 13.0 mph 100 % 0.01 in
15:23 76.8 °F 76.8 °F 29.78 in ENE 2.0 mph 13.0 mph 100 % 0.02 in
15:28 76.8 °F 76.5 °F 29.79 in ENE 2.0 mph 11.0 mph 99 % 0.02 in
15:33 76.8 °F 76.5 °F 29.78 in ENE 4.0 mph 13.0 mph 99 % 0.02 in
15:38 76.8 °F 76.5 °F 29.78 in ENE 9.0 mph 16.0 mph 99 % 0.02 in
15:43 76.8 °F 76.5 °F 29.78 in East 1.0 mph 16.0 mph 99 % 0.02 in
15:48 76.8 °F 76.5 °F 29.78 in SW 3.0 mph 16.0 mph 99 % 0.02 in
15:53 76.8 °F 76.3 °F 29.78 in NE 6.0 mph 14.0 mph 98 % 0.02 in
15:58 77.0 °F 76.5 °F 29.78 in NNE 10.0 mph 14.0 mph 98 % 0.01 in
16:03 77.2 °F 76.6 °F 29.77 in ENE 6.0 mph 13.0 mph 98 % 0.01 in
16:08 77.2 °F 76.6 °F 29.77 in North 7.0 mph 13.0 mph 98 % 0.01 in
16:13 77.2 °F 76.6 °F 29.77 in NNW 3.0 mph 11.0 mph 98 % 0.01 in
16:18 77.2 °F 76.6 °F 29.77 in ENE 4.0 mph 11.0 mph 98 % 0.01 in
16:24 76.8 °F 76.3 °F 29.78 in ESE 9.0 mph 12.0 mph 98 % 0.12 in
16:29 76.5 °F 75.9 °F 29.76 in NNE 2.0 mph 12.0 mph 98 % 0.23 in
16:34 76.5 °F 75.9 °F 29.77 in SE 3.0 mph 12.0 mph 98 % 0.26 in
16:39 76.3 °F 75.7 °F 29.77 in SE 7.0 mph 11.0 mph 98 % 0.40 in
16:44 76.5 °F 76.1 °F 29.77 in SSE 5.0 mph 11.0 mph 99 % 0.48 in
16:49 76.5 °F 76.1 °F 29.78 in East 3.0 mph 11.0 mph 99 % 0.48 in
16:54 76.5 °F 76.1 °F 29.78 in ENE 8.0 mph 13.0 mph 99 % 0.48 in
16:59 76.5 °F 76.1 °F 29.78 in NNE 5.0 mph 13.0 mph 99 % 0.48 in
17:04 76.5 °F 76.1 °F 29.78 in East 3.0 mph 14.0 mph 99 % 0.48 in
17:09 76.5 °F 76.1 °F 29.78 in ESE 3.0 mph 14.0 mph 99 % 0.48 in
17:14 76.5 °F 76.1 °F 29.78 in North 1.0 mph 15.0 mph 99 % 0.48 in
17:19 76.5 °F 76.1 °F 29.78 in NW 1.0 mph 15.0 mph 99 % 0.48 in
17:24 76.6 °F 76.3 °F 29.78 in SE 5.0 mph 15.0 mph 99 % 0.35 in
17:29 76.6 °F 76.3 °F 29.78 in NW 3.0 mph 13.0 mph 99 % 0.24 in
17:34 76.6 °F 76.1 °F 29.78 in ENE 2.0 mph 13.0 mph 98 % 0.23 in
17:39 76.6 °F 76.1 °F 29.78 in ENE 2.0 mph 13.0 mph 98 % 0.07 in
17:44 76.8 °F 76.3 °F 29.78 in ENE 4.0 mph 12.0 mph 98 % 0.01 in
17:49 76.8 °F 76.3 °F 29.78 in Calm   12.0 mph 98 % 0.01 in
17:54 76.8 °F 76.3 °F 29.79 in SSW 2.0 mph 12.0 mph 98 % 0.02 in
17:59 76.8 °F 76.3 °F 29.78 in ESE 2.0 mph 13.0 mph 98 % 0.03 in
18:04 77.0 °F 76.5 °F 29.79 in ENE 7.0 mph 13.0 mph 98 % 0.03 in
18:09 77.0 °F 76.5 °F 29.79 in ESE 5.0 mph 13.0 mph 98 % 0.03 in
18:14 77.0 °F 76.5 °F 29.79 in NNW 4.0 mph 13.0 mph 98 % 0.03 in
18:19 77.0 °F 76.5 °F 29.79 in NNE 7.0 mph 13.0 mph 98 % 0.03 in
18:24 77.0 °F 76.5 °F 29.79 in East 8.0 mph 13.0 mph 98 % 0.03 in
18:29 77.0 °F 76.5 °F 29.79 in ENE 2.0 mph 11.0 mph 98 % 0.03 in
18:34 76.8 °F 76.3 °F 29.79 in NE 2.0 mph 10.0 mph 98 % 0.02 in
18:39 76.8 °F 76.3 °F 29.79 in ENE 5.0 mph 10.0 mph 98 % 0.02 in
18:44 76.6 °F 76.1 °F 29.79 in ESE 9.0 mph 14.0 mph 98 % 0.03 in
18:54 76.6 °F 75.7 °F 29.79 in Calm   14.0 mph 97 % 0.01 in
18:59 76.5 °F 75.6 °F 29.78 in East 2.0 mph 13.0 mph 97 % 0.03 in
19:04 76.5 °F 75.9 °F 29.80 in East 8.0 mph 13.0 mph 98 % 0.14 in
19:09 76.5 °F 75.9 °F 29.80 in SE 4.0 mph 16.0 mph 98 % 0.14 in
19:14 76.5 °F 75.9 °F 29.79 in SE 7.0 mph 16.0 mph 98 % 0.14 in
19:19 76.5 °F 75.9 °F 29.79 in SE 4.0 mph 16.0 mph 98 % 0.14 in
19:25 76.3 °F 75.7 °F 29.78 in ESE 7.0 mph 12.0 mph 98 % 0.15 in
19:30 76.3 °F 75.7 °F 29.78 in East 6.0 mph 12.0 mph 98 % 0.16 in
19:31 76.1 °F 75.6 °F 29.78 in NW 7.0 mph 16.0 mph 98 % 0.17 in
19:36 75.9 °F 75.4 °F 29.78 in East 1.0 mph 16.0 mph 98 % 0.18 in
19:41 75.9 °F 75.4 °F 29.78 in South 5.0 mph 17.0 mph 98 % 0.18 in
19:46 75.9 °F 75.4 °F 29.78 in NE 5.0 mph 17.0 mph 98 % 0.19 in
19:51 75.9 °F 75.4 °F 29.78 in East 11.0 mph 17.0 mph 98 % 0.20 in
19:56 75.9 °F 75.4 °F 29.77 in North 12.0 mph 22.0 mph 98 % 0.19 in
20:01 75.9 °F 75.4 °F 29.77 in East 6.0 mph 22.0 mph 98 % 0.09 in
20:06 75.7 °F 75.2 °F 29.77 in ENE 6.0 mph 22.0 mph 98 % 0.10 in
20:11 75.7 °F 75.2 °F 29.77 in East 4.0 mph 17.0 mph 98 % 0.11 in
20:12 75.9 °F 75.4 °F 29.77 in NNE 4.0 mph 17.0 mph 98 % 0.11 in
20:17 75.9 °F 75.4 °F 29.78 in ENE 3.0 mph 17.0 mph 98 % 0.10 in
20:22 75.9 °F 75.4 °F 29.78 in NNW 4.0 mph 17.0 mph 98 % 0.11 in
20:27 75.9 °F 75.4 °F 29.77 in NNE 8.0 mph 14.0 mph 98 % 0.10 in
20:32 75.9 °F 75.4 °F 29.77 in SSW 2.0 mph 16.0 mph 98 % 0.09 in
20:37 75.7 °F 75.2 °F 29.77 in NW 2.0 mph 16.0 mph 98 % 0.09 in
20:42 75.7 °F 75.2 °F 29.78 in ENE 3.0 mph 18.0 mph 98 % 0.09 in
20:47 75.7 °F 75.2 °F 29.77 in NNE 4.0 mph 18.0 mph 98 % 0.08 in
20:52 75.7 °F 75.2 °F 29.78 in ENE 11.0 mph 18.0 mph 98 % 0.10 in
20:57 75.7 °F 75.2 °F 29.78 in East 7.0 mph 20.0 mph 98 % 0.10 in
20:58 75.7 °F 75.2 °F 29.78 in SE 2.0 mph 20.0 mph 98 % 0.10 in
21:03 75.6 °F 75.0 °F 29.79 in SSE 1.0 mph 20.0 mph 98 % 0.14 in
21:08 75.6 °F 75.0 °F 29.79 in SE 6.0 mph 20.0 mph 98 % 0.17 in
21:13 75.6 °F 75.0 °F 29.79 in NNW 6.0 mph 17.0 mph 98 % 0.18 in
21:18 75.6 °F 75.0 °F 29.80 in NE 4.0 mph 17.0 mph 98 % 0.19 in
21:23 75.6 °F 75.0 °F 29.79 in NE 7.0 mph 15.0 mph 98 % 0.19 in
21:28 75.6 °F 75.0 °F 29.79 in North 2.0 mph 15.0 mph 98 % 0.22 in
21:33 75.6 °F 75.0 °F 29.80 in SW 3.0 mph 15.0 mph 98 % 0.25 in
21:38 75.6 °F 75.2 °F 29.81 in North 3.0 mph 15.0 mph 99 % 0.28 in
21:43 75.6 °F 75.2 °F 29.81 in East 3.0 mph 15.0 mph 99 % 0.30 in
21:48 75.4 °F 75.0 °F 29.81 in NNE 6.0 mph 12.0 mph 99 % 0.30 in
21:53 75.4 °F 75.0 °F 29.81 in NNE 6.0 mph 12.0 mph 99 % 0.33 in
21:58 75.4 °F 75.0 °F 29.82 in ENE 7.0 mph 12.0 mph 99 % 0.38 in
22:03 75.4 °F 75.0 °F 29.82 in East 3.0 mph 12.0 mph 99 % 0.38 in
22:08 75.4 °F 75.0 °F 29.82 in East 6.0 mph 12.0 mph 99 % 0.39 in
22:13 75.4 °F 75.0 °F 29.84 in SE 6.0 mph 11.0 mph 99 % 0.40 in
22:18 75.4 °F 75.0 °F 29.83 in SE 1.0 mph 11.0 mph 99 % 0.52 in
22:22 75.4 °F 75.0 °F 29.83 in ENE 2.0 mph 11.0 mph 99 % 0.63 in
22:27 75.4 °F 75.0 °F 29.83 in NW 1.0 mph 11.0 mph 99 % 0.78 in
22:32 75.4 °F 75.0 °F 29.82 in East 4.0 mph 9.0 mph 99 % 0.83 in
22:37 75.4 °F 75.0 °F 29.81 in ENE 1.0 mph 9.0 mph 99 % 0.88 in
22:42 75.4 °F 75.0 °F 29.83 in East 6.0 mph 13.0 mph 99 % 0.97 in
22:47 75.4 °F 75.0 °F 29.83 in ESE 5.0 mph 16.0 mph 99 % 1.06 in
22:52 75.0 °F 74.7 °F 29.83 in SE 5.0 mph 16.0 mph 99 % 1.08 in
22:57 74.3 °F 73.9 °F 29.84 in ESE 5.0 mph 20.0 mph 99 % 1.02 in
23:02 73.8 °F 73.4 °F 29.83 in ESE 8.0 mph 20.0 mph 99 % 0.98 in
23:07 73.8 °F 73.4 °F 29.83 in ENE 8.0 mph 20.0 mph 99 % 0.96 in
23:12 73.8 °F 73.4 °F 29.82 in NE 3.0 mph 16.0 mph 99 % 0.94 in
23:17 73.8 °F 73.8 °F 29.82 in ESE 4.0 mph 16.0 mph 100 % 0.81 in
23:22 73.8 °F 73.8 °F 29.83 in ENE 1.0 mph 14.0 mph 100 % 0.71 in
23:28 73.8 °F 73.8 °F 29.83 in East 1.0 mph 13.0 mph 100 % 0.59 in
23:33 73.8 °F 73.8 °F 29.81 in ENE 1.0 mph 13.0 mph 100 % 0.55 in
23:38 73.8 °F 73.8 °F 29.82 in NNW 1.0 mph 13.0 mph 100 % 0.61 in
23:43 73.8 °F 73.8 °F 29.82 in Calm   9.0 mph 100 % 0.61 in
23:48 73.9 °F 73.9 °F 29.81 in ENE 5.0 mph 9.0 mph 100 % 0.55 in
23:53 73.9 °F 73.9 °F 29.82 in ESE 1.0 mph 7.0 mph 100 % 0.54 in
23:58 74.3 °F 74.3 °F 29.81 in ENE 8.0 mph 8.0 mph 100 % 0.61 in
Spring, Texas: Villages of Bridgestone
Compliments of Weather Underground - 2.75 mb

Script developed by  Jim McMurry - jmcmurry@mwt.net Adapted for the template by  Wim van der Kuil - Leuven-Template.eu

You find our weather info also at:

UK Metoffice

WeatherCloud

Weather Underground

Mid-South Weather Network

AWEKAS

Citizen Weather Observer Program (CWOP)

HAMweather, WeatherForYou, PWS Weather

Equipment we use:

Weather-station
Davis Vantage Vue

Weather-program
Meteohub

Weather-server
Debian 7.9 x86 (Guest)

Provider
DreamHost

Davis Vantage Vue

Meteohub

Debian 7.9 x86 (Guest)

DreamHost